sensor_id;sensor_type;location;lat;lon;timestamp;pressure;altitude;pressure_sealevel;temperature;humidity
45040;BME280;30778;53.574;7.770;2022-09-09T00:03:48;100735.91;;;11.83;58.83
45040;BME280;30778;53.574;7.770;2022-09-09T00:06:21;100738.47;;;11.84;58.95
45040;BME280;30778;53.574;7.770;2022-09-09T00:09:02;100737.91;;;11.78;58.86
45040;BME280;30778;53.574;7.770;2022-09-09T00:11:40;100738.84;;;11.75;58.84
45040;BME280;30778;53.574;7.770;2022-09-09T00:14:13;100731.38;;;11.67;58.92
45040;BME280;30778;53.574;7.770;2022-09-09T00:16:47;100732.09;;;11.71;59.14
45040;BME280;30778;53.574;7.770;2022-09-09T00:19:33;100725.91;;;11.72;59.11
45040;BME280;30778;53.574;7.770;2022-09-09T00:27:25;100719.00;;;11.71;59.02
45040;BME280;30778;53.574;7.770;2022-09-09T00:30:24;100720.19;;;11.64;59.02
45040;BME280;30778;53.574;7.770;2022-09-09T00:32:55;100715.88;;;11.63;59.21
45040;BME280;30778;53.574;7.770;2022-09-09T00:35:37;100715.25;;;11.58;59.37
45040;BME280;30778;53.574;7.770;2022-09-09T00:38:10;100714.47;;;11.56;59.39
45040;BME280;30778;53.574;7.770;2022-09-09T00:40:48;100722.44;;;11.53;59.31
45040;BME280;30778;53.574;7.770;2022-09-09T00:43:34;100717.22;;;11.53;59.14
45040;BME280;30778;53.574;7.770;2022-09-09T00:49:04;100700.66;;;11.52;59.06
45040;BME280;30778;53.574;7.770;2022-09-09T00:51:46;100698.28;;;11.48;58.79
45040;BME280;30778;53.574;7.770;2022-09-09T00:54:38;100700.53;;;11.36;59.33
45040;BME280;30778;53.574;7.770;2022-09-09T01:00:31;100720.47;;;11.39;59.01
45040;BME280;30778;53.574;7.770;2022-09-09T01:09:04;100718.06;;;11.34;59.33
45040;BME280;30778;53.574;7.770;2022-09-09T01:11:42;100714.19;;;11.43;59.11
45040;BME280;30778;53.574;7.770;2022-09-09T01:14:32;100709.13;;;11.40;59.09
45040;BME280;30778;53.574;7.770;2022-09-09T01:23:00;100705.94;;;11.33;58.85
45040;BME280;30778;53.574;7.770;2022-09-09T01:28:32;100703.69;;;11.24;59.02
45040;BME280;30778;53.574;7.770;2022-09-09T01:31:05;100708.03;;;11.25;59.57
45040;BME280;30778;53.574;7.770;2022-09-09T01:33:38;100713.41;;;11.22;59.64
45040;BME280;30778;53.574;7.770;2022-09-09T01:36:10;100712.91;;;11.33;59.36
45040;BME280;30778;53.574;7.770;2022-09-09T01:38:45;100709.44;;;11.32;59.47
45040;BME280;30778;53.574;7.770;2022-09-09T01:41:11;100706.47;;;11.21;59.41
45040;BME280;30778;53.574;7.770;2022-09-09T01:43:44;100702.75;;;11.27;59.31
45040;BME280;30778;53.574;7.770;2022-09-09T01:46:10;100697.41;;;11.28;59.57
45040;BME280;30778;53.574;7.770;2022-09-09T01:48:37;100700.81;;;11.30;59.49
45040;BME280;30778;53.574;7.770;2022-09-09T01:51:08;100693.13;;;11.27;59.77
45040;BME280;30778;53.574;7.770;2022-09-09T01:53:36;100695.38;;;11.35;59.59
45040;BME280;30778;53.574;7.770;2022-09-09T01:56:05;100693.91;;;11.29;59.55
45040;BME280;30778;53.574;7.770;2022-09-09T02:01:19;100691.34;;;11.28;59.03
45040;BME280;30778;53.574;7.770;2022-09-09T02:03:52;100684.53;;;11.23;59.08
45040;BME280;30778;53.574;7.770;2022-09-09T02:06:34;100688.31;;;11.18;59.08
45040;BME280;30778;53.574;7.770;2022-09-09T02:09:11;100690.19;;;11.14;59.23
45040;BME280;30778;53.574;7.770;2022-09-09T02:11:39;100687.66;;;11.13;59.21
45040;BME280;30778;53.574;7.770;2022-09-09T02:14:22;100684.13;;;11.14;59.32
45040;BME280;30778;53.574;7.770;2022-09-09T02:17:01;100679.78;;;11.13;59.66
45040;BME280;30778;53.574;7.770;2022-09-09T02:19:49;100679.03;;;11.11;59.61
45040;BME280;30778;53.574;7.770;2022-09-09T02:22:31;100674.72;;;11.10;59.85
45040;BME280;30778;53.574;7.770;2022-09-09T02:25:01;100670.28;;;11.12;59.75
45040;BME280;30778;53.574;7.770;2022-09-09T02:27:29;100665.75;;;11.15;59.55
45040;BME280;30778;53.574;7.770;2022-09-09T02:29:58;100666.44;;;11.19;59.64
45040;BME280;30778;53.574;7.770;2022-09-09T02:32:42;100670.28;;;11.12;59.50
45040;BME280;30778;53.574;7.770;2022-09-09T02:35:17;100668.38;;;11.15;59.64
45040;BME280;30778;53.574;7.770;2022-09-09T02:37:45;100669.00;;;11.20;59.68
45040;BME280;30778;53.574;7.770;2022-09-09T02:40:16;100660.94;;;11.25;59.40
45040;BME280;30778;53.574;7.770;2022-09-09T02:42:47;100665.97;;;11.30;59.46
45040;BME280;30778;53.574;7.770;2022-09-09T02:45:16;100668.34;;;11.34;59.23
45040;BME280;30778;53.574;7.770;2022-09-09T02:50:50;100674.56;;;11.51;59.47
45040;BME280;30778;53.574;7.770;2022-09-09T02:53:38;100675.34;;;11.53;59.22
45040;BME280;30778;53.574;7.770;2022-09-09T02:56:10;100670.81;;;11.56;59.43
45040;BME280;30778;53.574;7.770;2022-09-09T02:58:42;100673.06;;;11.64;59.62
45040;BME280;30778;53.574;7.770;2022-09-09T03:01:08;100665.84;;;11.69;59.50
45040;BME280;30778;53.574;7.770;2022-09-09T03:03:34;100676.16;;;11.72;59.36
45040;BME280;30778;53.574;7.770;2022-09-09T03:06:04;100681.25;;;11.75;59.32
45040;BME280;30778;53.574;7.770;2022-09-09T03:08:31;100679.16;;;11.83;59.08
45040;BME280;30778;53.574;7.770;2022-09-09T03:10:59;100679.16;;;11.83;59.01
45040;BME280;30778;53.574;7.770;2022-09-09T03:13:28;100680.22;;;11.79;59.29
45040;BME280;30778;53.574;7.770;2022-09-09T03:15:54;100686.09;;;11.84;59.27
45040;BME280;30778;53.574;7.770;2022-09-09T03:18:20;100685.94;;;11.87;59.30
45040;BME280;30778;53.574;7.770;2022-09-09T03:20:49;100684.38;;;11.83;58.99
45040;BME280;30778;53.574;7.770;2022-09-09T03:23:17;100689.00;;;11.78;59.09
45040;BME280;30778;53.574;7.770;2022-09-09T03:25:48;100696.91;;;11.77;59.29
45040;BME280;30778;53.574;7.770;2022-09-09T03:28:15;100700.66;;;11.71;59.09
45040;BME280;30778;53.574;7.770;2022-09-09T03:30:42;100684.97;;;11.71;59.20
45040;BME280;30778;53.574;7.770;2022-09-09T03:33:08;100688.47;;;11.70;59.29
45040;BME280;30778;53.574;7.770;2022-09-09T03:35:33;100693.16;;;11.63;59.02
45040;BME280;30778;53.574;7.770;2022-09-09T03:37:59;100689.59;;;11.47;59.77
45040;BME280;30778;53.574;7.770;2022-09-09T03:40:28;100691.25;;;11.48;59.97
45040;BME280;30778;53.574;7.770;2022-09-09T03:42:54;100697.06;;;11.55;59.60
45040;BME280;30778;53.574;7.770;2022-09-09T03:45:19;100696.00;;;11.59;59.34
45040;BME280;30778;53.574;7.770;2022-09-09T03:47:45;100697.00;;;11.56;59.40
45040;BME280;30778;53.574;7.770;2022-09-09T03:50:11;100690.75;;;11.59;59.46
45040;BME280;30778;53.574;7.770;2022-09-09T03:52:42;100694.94;;;11.63;59.64
45040;BME280;30778;53.574;7.770;2022-09-09T03:55:14;100693.16;;;11.63;59.42
45040;BME280;30778;53.574;7.770;2022-09-09T03:57:40;100687.03;;;11.64;59.78
45040;BME280;30778;53.574;7.770;2022-09-09T04:00:08;100685.31;;;11.63;59.21
45040;BME280;30778;53.574;7.770;2022-09-09T04:02:45;100692.47;;;11.60;59.34
45040;BME280;30778;53.574;7.770;2022-09-09T04:05:15;100690.69;;;11.60;59.09
45040;BME280;30778;53.574;7.770;2022-09-09T04:07:42;100694.31;;;11.58;59.60
45040;BME280;30778;53.574;7.770;2022-09-09T04:10:11;100693.44;;;11.57;59.55
45040;BME280;30778;53.574;7.770;2022-09-09T04:12:38;100695.09;;;11.60;59.25
45040;BME280;30778;53.574;7.770;2022-09-09T04:15:04;100697.84;;;11.57;59.35
45040;BME280;30778;53.574;7.770;2022-09-09T04:17:30;100695.22;;;11.57;59.34
45040;BME280;30778;53.574;7.770;2022-09-09T04:19:56;100689.97;;;11.57;59.45
45040;BME280;30778;53.574;7.770;2022-09-09T04:22:23;100693.59;;;11.54;59.35
45040;BME280;30778;53.574;7.770;2022-09-09T04:24:51;100694.78;;;11.66;59.45
45040;BME280;30778;53.574;7.770;2022-09-09T04:27:18;100696.22;;;11.73;59.46
45040;BME280;30778;53.574;7.770;2022-09-09T04:29:44;100698.84;;;11.73;59.44
45040;BME280;30778;53.574;7.770;2022-09-09T04:32:10;100700.16;;;11.82;59.27
45040;BME280;30778;53.574;7.770;2022-09-09T04:34:37;100703.13;;;11.74;59.47
45040;BME280;30778;53.574;7.770;2022-09-09T04:37:03;100705.50;;;11.80;59.17
45040;BME280;30778;53.574;7.770;2022-09-09T04:39:28;100700.81;;;11.87;59.23
45040;BME280;30778;53.574;7.770;2022-09-09T04:41:54;100703.22;;;11.92;59.25
45040;BME280;30778;53.574;7.770;2022-09-09T04:44:21;100705.66;;;11.95;59.17
45040;BME280;30778;53.574;7.770;2022-09-09T04:46:47;100705.44;;;11.99;59.22
45040;BME280;30778;53.574;7.770;2022-09-09T04:49:13;100705.31;;;12.02;58.97
45040;BME280;30778;53.574;7.770;2022-09-09T04:51:38;100711.94;;;12.10;59.08
45040;BME280;30778;53.574;7.770;2022-09-09T04:54:04;100706.00;;;12.06;59.00
45040;BME280;30778;53.574;7.770;2022-09-09T04:56:31;100703.09;;;12.12;58.90
45040;BME280;30778;53.574;7.770;2022-09-09T04:58:57;100709.44;;;12.06;58.93
45040;BME280;30778;53.574;7.770;2022-09-09T05:01:33;100717.84;;;12.13;59.00
45040;BME280;30778;53.574;7.770;2022-09-09T05:04:02;100714.25;;;11.98;59.43
45040;BME280;30778;53.574;7.770;2022-09-09T05:06:28;100717.53;;;11.84;59.83
45040;BME280;30778;53.574;7.770;2022-09-09T05:08:58;100717.97;;;11.93;59.49
45040;BME280;30778;53.574;7.770;2022-09-09T05:11:29;100722.31;;;11.94;59.37
45040;BME280;30778;53.574;7.770;2022-09-09T05:14:09;100722.16;;;11.97;59.45
45040;BME280;30778;53.574;7.770;2022-09-09T05:16:36;100723.25;;;12.10;59.11
45040;BME280;30778;53.574;7.770;2022-09-09T05:19:02;100726.50;;;12.15;59.00
45040;BME280;30778;53.574;7.770;2022-09-09T05:21:37;100720.91;;;12.23;58.81
45040;BME280;30778;53.574;7.770;2022-09-09T05:24:03;100721.34;;;12.31;58.54
45040;BME280;30778;53.574;7.770;2022-09-09T05:26:29;100719.13;;;12.23;58.38
45040;BME280;30778;53.574;7.770;2022-09-09T05:28:56;100720.81;;;12.07;58.91
45040;BME280;30778;53.574;7.770;2022-09-09T05:31:22;100723.81;;;12.17;58.66
45040;BME280;30778;53.574;7.770;2022-09-09T05:33:50;100721.31;;;11.96;58.66
45040;BME280;30778;53.574;7.770;2022-09-09T05:36:21;100719.38;;;12.00;58.89
45040;BME280;30778;53.574;7.770;2022-09-09T05:38:50;100718.75;;;11.95;58.98
45040;BME280;30778;53.574;7.770;2022-09-09T05:41:17;100723.09;;;11.96;59.14
45040;BME280;30778;53.574;7.770;2022-09-09T05:43:44;100729.50;;;12.07;59.13
45040;BME280;30778;53.574;7.770;2022-09-09T05:46:13;100720.03;;;12.05;59.02
45040;BME280;30778;53.574;7.770;2022-09-09T05:48:42;100730.22;;;12.11;58.96
45040;BME280;30778;53.574;7.770;2022-09-09T05:51:10;100726.22;;;12.56;58.61
45040;BME280;30778;53.574;7.770;2022-09-09T05:53:42;100730.50;;;12.76;58.03
45040;BME280;30778;53.574;7.770;2022-09-09T05:56:10;100729.91;;;13.20;58.06
45040;BME280;30778;53.574;7.770;2022-09-09T05:58:37;100734.50;;;13.32;56.96
45040;BME280;30778;53.574;7.770;2022-09-09T06:01:08;100736.47;;;13.45;56.61
45040;BME280;30778;53.574;7.770;2022-09-09T06:03:39;100736.53;;;13.27;56.86
45040;BME280;30778;53.574;7.770;2022-09-09T06:06:08;100739.09;;;13.11;57.24
45040;BME280;30778;53.574;7.770;2022-09-09T06:08:36;100741.97;;;13.07;57.62
45040;BME280;30778;53.574;7.770;2022-09-09T06:13:32;100739.94;;;12.44;59.20
45040;BME280;30778;53.574;7.770;2022-09-09T06:15:58;100754.97;;;12.93;58.34
45040;BME280;30778;53.574;7.770;2022-09-09T06:18:27;100749.50;;;12.80;58.22
45040;BME280;30778;53.574;7.770;2022-09-09T06:21:01;100741.03;;;12.75;58.40
45040;BME280;30778;53.574;7.770;2022-09-09T06:23:29;100755.50;;;12.64;58.81
45040;BME280;30778;53.574;7.770;2022-09-09T06:26:05;100757.81;;;12.53;58.79
45040;BME280;30778;53.574;7.770;2022-09-09T06:28:33;100750.59;;;12.58;57.98
45040;BME280;30778;53.574;7.770;2022-09-09T06:31:04;100750.41;;;12.44;58.36
45040;BME280;30778;53.574;7.770;2022-09-09T06:33:35;100746.22;;;12.05;59.38
45040;BME280;30778;53.574;7.770;2022-09-09T06:36:03;100746.25;;;11.86;59.37
45040;BME280;30778;53.574;7.770;2022-09-09T06:38:29;100752.47;;;11.83;59.31
45040;BME280;30778;53.574;7.770;2022-09-09T06:40:58;100746.63;;;11.78;59.42
45040;BME280;30778;53.574;7.770;2022-09-09T06:43:25;100749.63;;;11.88;59.53
45040;BME280;30778;53.574;7.770;2022-09-09T06:45:57;100760.81;;;11.92;59.60
45040;BME280;30778;53.574;7.770;2022-09-09T06:48:24;100754.97;;;12.04;59.18
45040;BME280;30778;53.574;7.770;2022-09-09T06:51:02;100754.53;;;12.13;59.51
45040;BME280;30778;53.574;7.770;2022-09-09T06:53:30;100759.94;;;12.10;59.73
45040;BME280;30778;53.574;7.770;2022-09-09T06:56:13;100757.31;;;12.10;59.68
45040;BME280;30778;53.574;7.770;2022-09-09T06:58:43;100756.69;;;12.05;60.01
45040;BME280;30778;53.574;7.770;2022-09-09T07:01:29;100766.91;;;12.11;59.90
45040;BME280;30778;53.574;7.770;2022-09-09T07:03:59;100767.13;;;12.24;59.51
45040;BME280;30778;53.574;7.770;2022-09-09T07:06:28;100763.38;;;12.29;59.74
45040;BME280;30778;53.574;7.770;2022-09-09T07:08:58;100772.84;;;12.32;59.55
45040;BME280;30778;53.574;7.770;2022-09-09T07:11:29;100772.78;;;12.34;59.57
45040;BME280;30778;53.574;7.770;2022-09-09T07:13:58;100770.81;;;12.20;60.12
45040;BME280;30778;53.574;7.770;2022-09-09T07:16:24;100771.78;;;12.36;59.80
45040;BME280;30778;53.574;7.770;2022-09-09T07:18:51;100766.16;;;12.44;59.62
45040;BME280;30778;53.574;7.770;2022-09-09T07:21:17;100777.69;;;12.40;59.83
45040;BME280;30778;53.574;7.770;2022-09-09T07:23:43;100770.03;;;12.54;59.72
45040;BME280;30778;53.574;7.770;2022-09-09T07:26:14;100771.25;;;12.64;59.36
45040;BME280;30778;53.574;7.770;2022-09-09T07:28:40;100772.09;;;12.65;59.24
45040;BME280;30778;53.574;7.770;2022-09-09T07:31:08;100769.13;;;12.73;59.27
45040;BME280;30778;53.574;7.770;2022-09-09T07:33:39;100773.97;;;12.80;59.26
45040;BME280;30778;53.574;7.770;2022-09-09T07:36:09;100769.72;;;12.95;59.06
45040;BME280;30778;53.574;7.770;2022-09-09T07:38:42;100770.97;;;12.88;58.75
45040;BME280;30778;53.574;7.770;2022-09-09T07:41:09;100779.66;;;12.88;59.27
45040;BME280;30778;53.574;7.770;2022-09-09T07:43:41;100774.66;;;13.01;59.07
45040;BME280;30778;53.574;7.770;2022-09-09T07:46:08;100775.72;;;13.15;58.57
45040;BME280;30778;53.574;7.770;2022-09-09T07:48:35;100776.50;;;12.99;58.61
45040;BME280;30778;53.574;7.770;2022-09-09T07:51:09;100780.00;;;13.16;58.52
45040;BME280;30778;53.574;7.770;2022-09-09T07:53:35;100771.50;;;13.28;58.01
45040;BME280;30778;53.574;7.770;2022-09-09T07:56:09;100780.63;;;13.21;58.60
45040;BME280;30778;53.574;7.770;2022-09-09T07:58:37;100783.44;;;13.33;58.15
45040;BME280;30778;53.574;7.770;2022-09-09T08:01:11;100780.56;;;13.38;58.42
45040;BME280;30778;53.574;7.770;2022-09-09T08:03:37;100774.69;;;13.50;57.79
45040;BME280;30778;53.574;7.770;2022-09-09T08:06:06;100779.28;;;13.63;57.86
45040;BME280;30778;53.574;7.770;2022-09-09T08:08:33;100778.19;;;13.83;57.51
45040;BME280;30778;53.574;7.770;2022-09-09T08:11:08;100774.72;;;13.98;57.29
45040;BME280;30778;53.574;7.770;2022-09-09T08:13:36;100780.91;;;14.13;56.82
45040;BME280;30778;53.574;7.770;2022-09-09T08:16:10;100766.72;;;14.15;56.48
45040;BME280;30778;53.574;7.770;2022-09-09T08:18:37;100772.78;;;14.02;56.53
45040;BME280;30778;53.574;7.770;2022-09-09T08:21:15;100768.03;;;13.92;56.22
45040;BME280;30778;53.574;7.770;2022-09-09T08:23:44;100774.34;;;14.20;55.93
45040;BME280;30778;53.574;7.770;2022-09-09T08:26:13;100779.69;;;14.34;56.02
45040;BME280;30778;53.574;7.770;2022-09-09T08:28:40;100771.69;;;14.36;55.57
45040;BME280;30778;53.574;7.770;2022-09-09T08:31:21;100783.03;;;14.83;55.72
45040;BME280;30778;53.574;7.770;2022-09-09T08:33:48;100774.50;;;15.08;54.79
45040;BME280;30778;53.574;7.770;2022-09-09T08:36:16;100774.84;;;15.46;54.96
45040;BME280;30778;53.574;7.770;2022-09-09T08:38:43;100779.66;;;15.81;54.84
45040;BME280;30778;53.574;7.770;2022-09-09T08:43:51;100774.88;;;15.59;53.01
45040;BME280;30778;53.574;7.770;2022-09-09T08:52:21;100778.75;;;15.95;52.92
45040;BME280;30778;53.574;7.770;2022-09-09T08:54:47;100775.22;;;15.82;52.14
45040;BME280;30778;53.574;7.770;2022-09-09T08:57:21;100773.16;;;15.87;52.60
45040;BME280;30778;53.574;7.770;2022-09-09T08:59:52;100783.88;;;16.25;52.27
45040;BME280;30778;53.574;7.770;2022-09-09T09:02:26;100785.72;;;16.10;51.58
45040;BME280;30778;53.574;7.770;2022-09-09T09:13:12;100786.34;;;16.41;49.77
45040;BME280;30778;53.574;7.770;2022-09-09T09:15:42;100788.59;;;16.47;50.96
45040;BME280;30778;53.574;7.770;2022-09-09T09:18:12;100796.81;;;16.42;50.27
45040;BME280;30778;53.574;7.770;2022-09-09T09:20:50;100795.91;;;15.46;52.12
45040;BME280;30778;53.574;7.770;2022-09-09T09:23:24;100795.59;;;15.79;52.19
45040;BME280;30778;53.574;7.770;2022-09-09T09:25:58;100797.75;;;16.14;51.83
45040;BME280;30778;53.574;7.770;2022-09-09T09:28:28;100794.13;;;16.70;51.05
45040;BME280;30778;53.574;7.770;2022-09-09T09:31:04;100793.03;;;17.12;48.39
45040;BME280;30778;53.574;7.770;2022-09-09T09:33:53;100787.19;;;17.45;49.03
45040;BME280;30778;53.574;7.770;2022-09-09T09:36:32;100794.81;;;17.12;49.05
45040;BME280;30778;53.574;7.770;2022-09-09T09:39:01;100801.19;;;18.09;48.56
45040;BME280;30778;53.574;7.770;2022-09-09T09:41:40;100791.63;;;18.78;46.82
45040;BME280;30778;53.574;7.770;2022-09-09T09:44:31;100799.56;;;18.78;46.90
45040;BME280;30778;53.574;7.770;2022-09-09T09:47:07;100790.03;;;19.34;46.10
45040;BME280;30778;53.574;7.770;2022-09-09T09:49:33;100793.59;;;20.32;43.02
45040;BME280;30778;53.574;7.770;2022-09-09T09:52:04;100791.88;;;19.99;42.94
45040;BME280;30778;53.574;7.770;2022-09-09T09:54:33;100790.09;;;20.00;43.57
45040;BME280;30778;53.574;7.770;2022-09-09T09:57:13;100795.91;;;20.26;43.04
45040;BME280;30778;53.574;7.770;2022-09-09T09:59:44;100793.63;;;19.78;42.94
45040;BME280;30778;53.574;7.770;2022-09-09T10:02:22;100796.66;;;19.39;44.03
45040;BME280;30778;53.574;7.770;2022-09-09T10:05:20;100802.13;;;19.92;44.70
45040;BME280;30778;53.574;7.770;2022-09-09T10:08:08;100801.75;;;20.08;42.87
45040;BME280;30778;53.574;7.770;2022-09-09T10:13:15;100795.91;;;20.26;42.12
45040;BME280;30778;53.574;7.770;2022-09-09T10:15:56;100806.75;;;20.66;41.08
45040;BME280;30778;53.574;7.770;2022-09-09T10:18:56;100800.16;;;21.43;40.27
45040;BME280;30778;53.574;7.770;2022-09-09T10:27:32;100801.59;;;20.53;40.69
45040;BME280;30778;53.574;7.770;2022-09-09T10:30:30;100809.31;;;20.78;41.05
45040;BME280;30778;53.574;7.770;2022-09-09T10:46:31;100808.66;;;21.27;38.33
45040;BME280;30778;53.574;7.770;2022-09-09T10:52:10;100794.44;;;21.88;37.73
45040;BME280;30778;53.574;7.770;2022-09-09T10:55:14;100790.81;;;21.99;37.83
45040;BME280;30778;53.574;7.770;2022-09-09T10:57:46;100789.72;;;22.50;37.28
45040;BME280;30778;53.574;7.770;2022-09-09T11:00:22;100789.41;;;22.92;36.11
45040;BME280;30778;53.574;7.770;2022-09-09T11:03:00;100790.00;;;22.57;34.63
45040;BME280;30778;53.574;7.770;2022-09-09T11:05:42;100798.16;;;22.46;35.82
45040;BME280;30778;53.574;7.770;2022-09-09T11:08:21;100798.69;;;22.59;35.49
45040;BME280;30778;53.574;7.770;2022-09-09T11:11:04;100800.19;;;21.93;35.96
45040;BME280;30778;53.574;7.770;2022-09-09T11:16:44;100798.53;;;22.80;36.65
45040;BME280;30778;53.574;7.770;2022-09-09T11:19:18;100796.00;;;22.88;35.71
45040;BME280;30778;53.574;7.770;2022-09-09T11:21:48;100803.50;;;23.50;34.12
45040;BME280;30778;53.574;7.770;2022-09-09T11:24:35;100798.28;;;22.83;34.19
45040;BME280;30778;53.574;7.770;2022-09-09T11:40:26;100797.88;;;22.20;35.24
45040;BME280;30778;53.574;7.770;2022-09-09T11:43:29;100791.41;;;22.71;36.94
45040;BME280;30778;53.574;7.770;2022-09-09T11:46:01;100790.97;;;23.23;33.40
45040;BME280;30778;53.574;7.770;2022-09-09T11:48:43;100798.56;;;22.70;33.54
45040;BME280;30778;53.574;7.770;2022-09-09T11:54:25;100792.22;;;20.49;37.50
45040;BME280;30778;53.574;7.770;2022-09-09T11:56:49;100794.41;;;20.01;38.40
45040;BME280;30778;53.574;7.770;2022-09-09T12:02:18;100795.53;;;20.30;39.98
45040;BME280;30778;53.574;7.770;2022-09-09T12:05:07;100799.78;;;21.17;37.13
45040;BME280;30778;53.574;7.770;2022-09-09T12:07:53;100804.38;;;21.46;38.21
45040;BME280;30778;53.574;7.770;2022-09-09T12:12:50;100794.38;;;23.15;35.03
45040;BME280;30778;53.574;7.770;2022-09-09T12:15:26;100803.59;;;22.73;35.04
45040;BME280;30778;53.574;7.770;2022-09-09T12:17:57;100798.13;;;22.55;35.19
45040;BME280;30778;53.574;7.770;2022-09-09T12:34:40;100792.47;;;23.72;31.73
45040;BME280;30778;53.574;7.770;2022-09-09T12:37:39;100782.06;;;23.97;32.49
45040;BME280;30778;53.574;7.770;2022-09-09T12:40:16;100781.47;;;23.75;33.39
45040;BME280;30778;53.574;7.770;2022-09-09T12:42:43;100786.22;;;22.59;32.72
45040;BME280;30778;53.574;7.770;2022-09-09T12:47:54;100785.03;;;22.91;34.83
45040;BME280;30778;53.574;7.770;2022-09-09T12:50:23;100789.88;;;23.15;34.09
45040;BME280;30778;53.574;7.770;2022-09-09T12:52:58;100788.56;;;23.39;33.60
45040;BME280;30778;53.574;7.770;2022-09-09T12:55:30;100781.47;;;22.24;34.81
45040;BME280;30778;53.574;7.770;2022-09-09T12:57:57;100771.91;;;22.80;34.05
45040;BME280;30778;53.574;7.770;2022-09-09T13:00:25;100772.91;;;22.59;34.86
45040;BME280;30778;53.574;7.770;2022-09-09T13:02:53;100757.19;;;23.51;33.08
45040;BME280;30778;53.574;7.770;2022-09-09T13:05:24;100764.56;;;23.85;32.38
45040;BME280;30778;53.574;7.770;2022-09-09T13:07:51;100769.78;;;24.04;33.63
45040;BME280;30778;53.574;7.770;2022-09-09T13:10:24;100762.41;;;23.70;32.97
45040;BME280;30778;53.574;7.770;2022-09-09T13:12:52;100769.22;;;22.80;33.56
45040;BME280;30778;53.574;7.770;2022-09-09T13:15:26;100758.06;;;22.08;35.18
45040;BME280;30778;53.574;7.770;2022-09-09T13:17:56;100764.13;;;21.50;36.30
45040;BME280;30778;53.574;7.770;2022-09-09T13:20:23;100766.63;;;21.11;37.06
45040;BME280;30778;53.574;7.770;2022-09-09T13:22:51;100757.03;;;20.36;38.04
45040;BME280;30778;53.574;7.770;2022-09-09T13:25:27;100760.25;;;20.07;38.93
45040;BME280;30778;53.574;7.770;2022-09-09T13:28:05;100752.09;;;19.56;40.92
45040;BME280;30778;53.574;7.770;2022-09-09T13:30:33;100755.34;;;19.59;41.18
45040;BME280;30778;53.574;7.770;2022-09-09T13:33:17;100757.72;;;19.74;40.55
45040;BME280;30778;53.574;7.770;2022-09-09T13:38:15;100770.28;;;19.26;40.34
45040;BME280;30778;53.574;7.770;2022-09-09T13:40:53;100778.94;;;19.17;41.06
45040;BME280;30778;53.574;7.770;2022-09-09T13:43:23;100783.50;;;19.04;42.06
45040;BME280;30778;53.574;7.770;2022-09-09T13:46:37;100794.78;;;18.83;41.55
45040;BME280;30778;53.574;7.770;2022-09-09T13:48:42;100801.00;;;18.82;41.18
45040;BME280;30778;53.574;7.770;2022-09-09T13:51:35;100794.13;;;18.68;41.98
45040;BME280;30778;53.574;7.770;2022-09-09T13:54:04;100793.88;;;18.36;42.88
45040;BME280;30778;53.574;7.770;2022-09-09T13:56:30;100800.00;;;18.13;43.67
45040;BME280;30778;53.574;7.770;2022-09-09T13:58:57;100801.44;;;18.05;43.34
45040;BME280;30778;53.574;7.770;2022-09-09T14:01:23;100812.06;;;17.80;44.92
45040;BME280;30778;53.574;7.770;2022-09-09T14:03:48;100814.47;;;17.20;46.21
45040;BME280;30778;53.574;7.770;2022-09-09T14:06:14;100822.66;;;16.77;49.12
45040;BME280;30778;53.574;7.770;2022-09-09T14:08:39;100816.78;;;16.47;50.27
45040;BME280;30778;53.574;7.770;2022-09-09T14:11:07;100817.69;;;16.46;50.92
45040;BME280;30778;53.574;7.770;2022-09-09T14:13:35;100813.81;;;16.24;51.90
45040;BME280;30778;53.574;7.770;2022-09-09T14:16:02;100823.69;;;15.79;54.26
45040;BME280;30778;53.574;7.770;2022-09-09T14:18:28;100830.47;;;15.83;53.87
45040;BME280;30778;53.574;7.770;2022-09-09T14:20:54;100822.84;;;15.78;54.54
45040;BME280;30778;53.574;7.770;2022-09-09T14:23:19;100824.31;;;15.55;54.56
45040;BME280;30778;53.574;7.770;2022-09-09T14:25:47;100820.44;;;15.61;55.06
45040;BME280;30778;53.574;7.770;2022-09-09T14:28:14;100813.38;;;15.47;55.64
45040;BME280;30778;53.574;7.770;2022-09-09T14:30:41;100807.47;;;15.58;55.87
45040;BME280;30778;53.574;7.770;2022-09-09T14:33:08;100810.09;;;15.58;55.85
45040;BME280;30778;53.574;7.770;2022-09-09T14:35:34;100802.81;;;15.62;56.21
45040;BME280;30778;53.574;7.770;2022-09-09T14:38:02;100800.84;;;15.65;56.35
45040;BME280;30778;53.574;7.770;2022-09-09T14:40:28;100802.94;;;15.60;56.23
45040;BME280;30778;53.574;7.770;2022-09-09T14:42:53;100804.25;;;15.67;56.41
45040;BME280;30778;53.574;7.770;2022-09-09T14:45:19;100811.13;;;15.55;55.80
45040;BME280;30778;53.574;7.770;2022-09-09T14:47:46;100811.03;;;15.43;55.62
45040;BME280;30778;53.574;7.770;2022-09-09T14:50:12;100801.16;;;15.61;55.37
45040;BME280;30778;53.574;7.770;2022-09-09T14:52:38;100797.59;;;15.47;54.65
45040;BME280;30778;53.574;7.770;2022-09-09T14:55:04;100780.28;;;15.57;54.60
45040;BME280;30778;53.574;7.770;2022-09-09T14:57:30;100777.81;;;15.69;54.86
45040;BME280;30778;53.574;7.770;2022-09-09T14:59:56;100778.72;;;15.82;54.17
45040;BME280;30778;53.574;7.770;2022-09-09T15:02:22;100788.16;;;15.99;54.29
45040;BME280;30778;53.574;7.770;2022-09-09T15:04:48;100790.28;;;16.21;53.96
45040;BME280;30778;53.574;7.770;2022-09-09T15:07:15;100787.66;;;16.21;53.08
45040;BME280;30778;53.574;7.770;2022-09-09T15:09:42;100783.66;;;16.15;52.03
45040;BME280;30778;53.574;7.770;2022-09-09T15:12:07;100777.84;;;16.23;52.10
45040;BME280;30778;53.574;7.770;2022-09-09T15:14:33;100778.09;;;16.33;52.16
45040;BME280;30778;53.574;7.770;2022-09-09T15:16:59;100777.16;;;16.34;51.80